Time;durP1;ratioP1;P1;durP2;ratioP2;P2;SDS_P1;SDS_P2;PMS_P1;PMS_P2;Temp;Humidity;BMP_temperature;BMP_pressure;BME280_temperature;BME280_humidity;BME280_pressure;Samples;Min_cycle;Max_cycle;Signal;HPM_P1;HPM_P2
2022/07/27 00:00:07;;;;;;;0.90;0.70;;;19.50;57.90;;;;;;5051581;28;20058;-63
2022/07/27 00:02:33;;;;;;;1.98;0.82;;;19.50;58.00;;;;;;5052890;28;20049;-62
2022/07/27 00:04:58;;;;;;;0.60;0.60;;;19.60;58.10;;;;;;5051798;28;20506;-65
2022/07/27 00:07:24;;;;;;;0.75;0.73;;;19.60;58.00;;;;;;5049907;28;20037;-67
2022/07/27 00:09:50;;;;;;;1.00;0.90;;;19.60;58.10;;;;;;5051182;28;20032;-66
2022/07/27 00:12:15;;;;;;;2.55;0.90;;;19.70;58.00;;;;;;5052695;28;20123;-66
2022/07/27 00:14:41;;;;;;;1.00;0.80;;;19.80;58.00;;;;;;5051272;28;20124;-64
2022/07/27 00:17:06;;;;;;;5.72;1.13;;;19.80;57.90;;;;;;5050329;28;20166;-68
2022/07/27 00:19:32;;;;;;;1.48;0.82;;;19.90;58.00;;;;;;5050613;28;20044;-65
2022/07/27 00:21:58;;;;;;;1.30;0.70;;;19.90;57.80;;;;;;5052285;28;20040;-62
2022/07/27 00:24:24;;;;;;;0.88;0.80;;;20.00;57.80;;;;;;5052035;28;20341;-68
2022/07/27 00:26:50;;;;;;;1.67;0.85;;;20.00;57.80;;;;;;5051196;28;20128;-64
2022/07/27 00:29:16;;;;;;;0.70;0.60;;;20.10;57.70;;;;;;5050623;28;20052;-63
2022/07/27 00:31:42;;;;;;;1.10;1.00;;;20.10;57.80;;;;;;5048667;28;20063;-62
2022/07/27 00:34:08;;;;;;;1.05;0.80;;;20.20;57.70;;;;;;5052791;28;20484;-64
2022/07/27 00:36:34;;;;;;;3.20;0.90;;;20.20;57.90;;;;;;5049541;28;20032;-64
2022/07/27 00:38:59;;;;;;;1.15;0.63;;;20.20;58.00;;;;;;5050451;28;20136;-63
2022/07/27 00:41:25;;;;;;;1.00;0.60;;;20.10;57.70;;;;;;5051273;28;20058;-66
2022/07/27 00:43:55;;;;;;;1.55;0.88;;;20.10;57.90;;;;;;5052120;28;20021;-64
2022/07/27 00:46:22;;;;;;;2.35;1.00;;;20.00;58.10;;;;;;5049024;28;20366;-64
2022/07/27 00:48:48;;;;;;;1.00;0.73;;;19.90;58.00;;;;;;5049772;28;20029;-64
2022/07/27 00:51:15;;;;;;;1.67;1.00;;;19.90;58.00;;;;;;5053715;28;20052;-63
2022/07/27 00:53:41;;;;;;;1.85;0.80;;;19.90;58.10;;;;;;5052340;28;20135;-62
2022/07/27 00:56:07;;;;;;;1.20;0.88;;;19.80;58.10;;;;;;5050351;28;20025;-64
2022/07/27 00:58:34;;;;;;;1.15;0.90;;;19.80;58.10;;;;;;5051241;28;20500;-65
2022/07/27 01:00:59;;;;;;;1.27;0.90;;;19.80;58.30;;;;;;5051388;28;20024;-67
2022/07/27 01:03:25;;;;;;;1.35;0.90;;;19.80;58.40;;;;;;5052044;28;20041;-63
2022/07/27 01:05:50;;;;;;;2.20;1.02;;;19.80;58.50;;;;;;5050841;28;20033;-61
2022/07/27 01:08:16;;;;;;;1.33;1.00;;;19.70;58.20;;;;;;5051584;28;20075;-66
2022/07/27 01:10:43;;;;;;;1.98;1.00;;;19.70;58.10;;;;;;5047862;28;20044;-65
2022/07/27 01:13:08;;;;;;;1.00;0.90;;;19.70;58.40;;;;;;5055513;28;20462;-62
2022/07/27 01:15:37;;;;;;;1.35;1.10;;;19.60;58.30;;;;;;5052421;28;20040;-65
2022/07/27 01:18:03;;;;;;;1.00;0.80;;;19.50;58.50;;;;;;5053564;28;20094;-67
2022/07/27 01:20:28;;;;;;;1.13;0.88;;;19.50;58.60;;;;;;5054611;28;20534;-64
2022/07/27 01:22:54;;;;;;;1.10;1.00;;;19.50;58.70;;;;;;5055060;28;20091;-64
2022/07/27 01:25:19;;;;;;;1.13;0.75;;;19.40;58.60;;;;;;5055741;28;20032;-61
2022/07/27 01:27:45;;;;;;;2.13;0.85;;;19.50;58.60;;;;;;5055759;28;20085;-63
2022/07/27 01:30:28;;;;;;;1.00;0.90;;;19.40;58.60;;;;;;5055021;28;20036;-65
2022/07/27 01:33:05;;;;;;;0.73;0.68;;;19.40;58.80;;;;;;5053137;28;20045;-63
2022/07/27 01:35:32;;;;;;;1.30;0.80;;;19.40;59.40;;;;;;5054294;28;20060;-64
2022/07/27 01:37:57;;;;;;;1.42;0.90;;;19.40;59.00;;;;;;5053692;28;21023;-64
2022/07/27 01:40:23;;;;;;;1.38;0.88;;;19.40;59.10;;;;;;5055805;28;20032;-67
2022/07/27 01:42:49;;;;;;;1.55;0.98;;;19.40;59.40;;;;;;5056006;28;20036;-64
2022/07/27 01:45:15;;;;;;;1.42;1.02;;;19.40;59.30;;;;;;5055205;28;20416;-66
2022/07/27 01:47:41;;;;;;;3.08;1.10;;;19.50;59.20;;;;;;5056454;28;20040;-64
2022/07/27 01:50:07;;;;;;;1.67;0.90;;;19.50;59.10;;;;;;5053197;28;20025;-64
2022/07/27 01:52:33;;;;;;;1.88;0.95;;;19.50;59.30;;;;;;5051152;28;20377;-65
2022/07/27 01:54:59;;;;;;;1.30;1.00;;;19.50;59.00;;;;;;5053561;28;20055;-60
2022/07/27 01:57:24;;;;;;;1.73;1.10;;;19.50;59.00;;;;;;5055350;28;20033;-64
2022/07/27 01:59:52;;;;;;;1.73;1.10;;;19.50;59.00;;;;;;5054698;28;20032;-63
2022/07/27 02:02:17;;;;;;;1.27;0.90;;;19.50;59.30;;;;;;5052307;28;20036;-65
2022/07/27 02:04:43;;;;;;;1.15;0.80;;;19.50;60.00;;;;;;5055514;28;22361;-63
2022/07/27 02:07:08;;;;;;;1.25;0.73;;;19.50;59.70;;;;;;5055704;28;20045;-62
2022/07/27 02:09:34;;;;;;;1.50;0.93;;;19.50;59.80;;;;;;5058116;28;20523;-66
2022/07/27 02:14:44;;;;;;;2.10;0.90;;;19.60;60.00;;;;;;5052938;28;20090;-64
2022/07/27 02:17:09;;;;;;;1.20;0.80;;;19.60;59.90;;;;;;5054041;28;20040;-65
2022/07/27 02:19:35;;;;;;;2.05;0.90;;;19.70;59.80;;;;;;5054740;28;20037;-65
2022/07/27 02:22:00;;;;;;;1.10;0.73;;;19.70;59.80;;;;;;5053006;28;20062;-63
2022/07/27 02:24:26;;;;;;;4.53;0.90;;;19.70;59.70;;;;;;5053002;28;20033;-64
2022/07/27 02:26:52;;;;;;;1.55;0.75;;;19.70;59.70;;;;;;5055628;28;20041;-63
2022/07/27 02:29:18;;;;;;;2.00;0.82;;;19.70;59.50;;;;;;5058368;28;20044;-63
2022/07/27 02:31:44;;;;;;;1.85;0.80;;;19.80;59.50;;;;;;5054760;28;20764;-64
2022/07/27 02:34:09;;;;;;;2.55;0.80;;;19.80;59.50;;;;;;5054602;28;20024;-63
2022/07/27 02:36:35;;;;;;;1.42;1.00;;;19.80;59.50;;;;;;5051140;28;20411;-63
2022/07/27 02:39:00;;;;;;;2.10;0.95;;;19.90;59.50;;;;;;5056043;28;20063;-65
2022/07/27 02:41:26;;;;;;;1.60;0.70;;;19.80;59.60;;;;;;5053528;28;20052;-63
2022/07/27 02:43:52;;;;;;;2.08;0.93;;;19.80;59.70;;;;;;5054020;28;20081;-65
2022/07/27 02:46:17;;;;;;;3.67;1.00;;;19.70;59.80;;;;;;5053387;28;20055;-63
2022/07/27 02:48:43;;;;;;;1.08;0.95;;;19.70;59.90;;;;;;5052327;28;20119;-63
2022/07/27 02:51:08;;;;;;;2.05;1.00;;;19.60;60.90;;;;;;5051636;28;20040;-65
2022/07/27 02:53:34;;;;;;;2.42;0.95;;;19.60;60.30;;;;;;5052254;28;20033;-66
2022/07/27 02:56:00;;;;;;;1.50;1.00;;;19.50;60.40;;;;;;5051749;28;20072;-64
2022/07/27 02:58:25;;;;;;;1.50;0.80;;;19.50;60.60;;;;;;5050781;28;20021;-61
2022/07/27 03:00:51;;;;;;;1.58;0.90;;;19.50;60.80;;;;;;5054182;28;20037;-62
2022/07/27 03:03:17;;;;;;;2.45;1.23;;;19.50;60.80;;;;;;5053898;28;20041;-66
2022/07/27 03:05:43;;;;;;;1.85;1.13;;;19.50;60.80;;;;;;5056161;28;20040;-63
2022/07/27 03:08:09;;;;;;;2.28;1.15;;;19.50;60.80;;;;;;5055650;28;20037;-64
2022/07/27 03:10:34;;;;;;;2.55;0.98;;;19.60;60.80;;;;;;5053903;28;20040;-63
2022/07/27 03:13:00;;;;;;;0.95;0.93;;;19.60;60.80;;;;;;5057960;28;20059;-63
2022/07/27 03:15:28;;;;;;;1.05;0.82;;;19.60;60.90;;;;;;5055636;28;20104;-61
2022/07/27 03:17:53;;;;;;;1.52;0.90;;;19.60;61.00;;;;;;5050454;28;20124;-65
2022/07/27 03:20:19;;;;;;;0.93;0.85;;;19.60;61.20;;;;;;5052117;28;20036;-64
2022/07/27 03:22:45;;;;;;;1.00;0.90;;;19.70;61.40;;;;;;5052535;28;20577;-67
2022/07/27 03:25:11;;;;;;;2.67;0.90;;;19.80;61.50;;;;;;5055872;28;20064;-63
2022/07/27 03:27:37;;;;;;;1.63;0.75;;;19.80;61.70;;;;;;5054428;28;20037;-62
2022/07/27 03:30:03;;;;;;;1.10;1.00;;;19.90;61.70;;;;;;5053965;28;20032;-63
2022/07/27 03:32:29;;;;;;;1.05;0.88;;;19.90;61.80;;;;;;5055253;28;20028;-63
2022/07/27 03:34:55;;;;;;;1.65;1.00;;;19.90;61.70;;;;;;5051191;28;20040;-63
2022/07/27 03:37:20;;;;;;;1.10;0.85;;;19.90;61.60;;;;;;5055295;28;20496;-65
2022/07/27 03:39:46;;;;;;;3.80;0.90;;;19.90;61.70;;;;;;5052686;28;20043;-65
2022/07/27 03:42:11;;;;;;;1.10;1.00;;;19.90;61.70;;;;;;5054478;28;20135;-64
2022/07/27 03:44:37;;;;;;;2.45;1.20;;;19.90;61.50;;;;;;5053391;28;20051;-63
2022/07/27 03:47:03;;;;;;;1.30;1.08;;;19.90;61.30;;;;;;5050556;28;22350;-61
2022/07/27 03:49:29;;;;;;;1.05;1.00;;;19.90;61.30;;;;;;5054178;28;20082;-65
2022/07/27 03:51:54;;;;;;;1.95;1.20;;;19.90;61.20;;;;;;5053440;28;20158;-65
2022/07/27 03:54:20;;;;;;;1.02;0.93;;;19.80;61.30;;;;;;5052839;28;20044;-63
2022/07/27 03:56:46;;;;;;;2.35;1.10;;;19.80;62.00;;;;;;5049956;28;20032;-63
2022/07/27 03:59:12;;;;;;;1.77;1.10;;;19.80;61.10;;;;;;5052636;28;20150;-64
2022/07/27 04:01:37;;;;;;;2.47;1.30;;;19.70;61.40;;;;;;5052347;28;20237;-63
2022/07/27 04:04:03;;;;;;;3.05;1.30;;;19.70;61.30;;;;;;5053567;28;20444;-61
2022/07/27 04:06:29;;;;;;;3.10;1.23;;;19.70;61.30;;;;;;5051348;28;20119;-62
2022/07/27 04:08:54;;;;;;;1.65;1.10;;;19.70;61.30;;;;;;5052716;28;20048;-64
2022/07/27 04:11:20;;;;;;;1.10;1.00;;;19.70;61.40;;;;;;5052153;28;20025;-64
2022/07/27 04:13:49;;;;;;;3.75;1.20;;;19.70;61.60;;;;;;5051690;28;20083;-63
2022/07/27 04:16:15;;;;;;;1.60;1.10;;;19.70;61.90;;;;;;5053404;28;20032;-63
2022/07/27 04:18:41;;;;;;;2.30;1.10;;;19.70;61.90;;;;;;5052110;28;20031;-63
2022/07/27 04:21:06;;;;;;;1.08;0.98;;;19.80;62.20;;;;;;5051079;28;20040;-65
2022/07/27 04:23:32;;;;;;;1.17;1.08;;;19.80;62.00;;;;;;5051218;28;20047;-64
2022/07/27 04:25:58;;;;;;;2.70;0.90;;;19.70;61.90;;;;;;5050170;28;20102;-64
2022/07/27 04:28:24;;;;;;;1.27;0.90;;;19.70;62.00;;;;;;5050197;28;20261;-64
2022/07/27 04:30:49;;;;;;;1.65;1.30;;;19.60;62.20;;;;;;5051108;28;20131;-63
2022/07/27 04:33:15;;;;;;;2.35;1.25;;;19.60;62.10;;;;;;5052699;28;20420;-63
2022/07/27 04:35:41;;;;;;;1.70;1.10;;;19.60;63.00;;;;;;5054205;28;20496;-60
2022/07/27 04:38:07;;;;;;;1.27;1.10;;;19.50;62.10;;;;;;5055260;28;20071;-63
2022/07/27 04:40:33;;;;;;;2.08;1.10;;;19.50;62.00;;;;;;5054242;28;20116;-62
2022/07/27 04:43:03;;;;;;;1.70;1.02;;;19.50;62.10;;;;;;5053100;28;20040;-65
2022/07/27 04:45:29;;;;;;;1.35;1.02;;;19.50;62.30;;;;;;5055413;28;20400;-63
2022/07/27 04:47:55;;;;;;;1.30;0.90;;;19.50;62.00;;;;;;5059636;28;20033;-63
2022/07/27 04:50:21;;;;;;;5.63;1.42;;;19.50;61.90;;;;;;5062410;28;20094;-63
2022/07/27 04:52:47;;;;;;;3.38;1.30;;;19.60;62.30;;;;;;5059124;28;20056;-64
2022/07/27 04:55:12;;;;;;;4.60;1.25;;;19.70;62.20;;;;;;5060151;28;20340;-64
2022/07/27 04:57:41;;;;;;;6.63;1.33;;;19.70;62.00;;;;;;5061405;28;20028;-63
2022/07/27 05:00:07;;;;;;;5.80;1.60;;;19.70;61.80;;;;;;5060064;28;20090;-63
2022/07/27 05:02:33;;;;;;;5.97;1.20;;;19.70;61.90;;;;;;5060153;28;20062;-64
2022/07/27 05:04:59;;;;;;;2.90;1.27;;;19.70;61.70;;;;;;5059986;28;20040;-63
2022/07/27 05:07:25;;;;;;;1.85;1.23;;;19.70;61.60;;;;;;5060413;28;20060;-61
2022/07/27 05:09:51;;;;;;;2.17;1.33;;;19.70;61.60;;;;;;5061633;28;20040;-64
2022/07/27 05:12:16;;;;;;;1.30;1.20;;;19.70;61.60;;;;;;5057118;28;20464;-61
2022/07/27 05:14:42;;;;;;;1.20;1.10;;;19.60;61.50;;;;;;5059823;28;20029;-64
2022/07/27 05:17:08;;;;;;;1.25;1.10;;;19.60;61.50;;;;;;5060525;28;20039;-63
2022/07/27 05:19:33;;;;;;;1.60;1.20;;;19.60;61.80;;;;;;5059642;28;20390;-62
2022/07/27 05:21:59;;;;;;;1.83;1.52;;;19.60;61.90;;;;;;5059791;28;20036;-62
2022/07/27 05:24:25;;;;;;;1.05;1.05;;;19.60;62.00;;;;;;5061355;28;20041;-62
2022/07/27 05:26:51;;;;;;;1.20;1.10;;;19.60;62.00;;;;;;5059096;28;20086;-61
2022/07/27 05:29:17;;;;;;;1.80;1.30;;;19.50;63.00;;;;;;5061161;28;20040;-64
2022/07/27 05:31:43;;;;;;;1.95;1.35;;;19.60;62.20;;;;;;5060162;28;20462;-62
2022/07/27 05:34:09;;;;;;;1.60;1.48;;;19.50;62.10;;;;;;5058915;28;20036;-64
2022/07/27 05:36:34;;;;;;;6.07;1.40;;;19.60;62.20;;;;;;5058955;28;20033;-65
2022/07/27 05:39:00;;;;;;;8.02;1.60;;;19.60;62.20;;;;;;5058640;28;20484;-67
2022/07/27 05:41:26;;;;;;;2.97;1.27;;;19.60;62.50;;;;;;5061097;28;20189;-63
2022/07/27 05:43:55;;;;;;;6.82;1.95;;;19.60;62.60;;;;;;5060931;28;20496;-64
2022/07/27 05:46:22;;;;;;;7.55;1.75;;;19.60;62.70;;;;;;5059818;28;20056;-63
2022/07/27 05:48:47;;;;;;;32.33;3.95;;;19.60;62.60;;;;;;5059146;28;20585;-62
2022/07/27 05:51:13;;;;;;;7.13;2.03;;;19.70;62.70;;;;;;5059819;28;20064;-63
2022/07/27 05:53:38;;;;;;;3.47;1.70;;;19.80;62.60;;;;;;5060241;28;20037;-63
2022/07/27 05:56:06;;;;;;;1.55;1.30;;;19.80;62.60;;;;;;5059076;28;20025;-63
2022/07/27 05:58:32;;;;;;;1.65;1.30;;;19.80;62.60;;;;;;5057174;28;20033;-63
2022/07/27 06:00:58;;;;;;;2.92;1.58;;;19.80;62.50;;;;;;5056307;28;20119;-64
2022/07/27 06:03:24;;;;;;;3.10;1.45;;;19.90;62.20;;;;;;5056444;28;20488;-63
2022/07/27 06:05:50;;;;;;;4.47;1.65;;;19.90;61.70;;;;;;5054918;28;20029;-65
2022/07/27 06:08:15;;;;;;;4.88;1.75;;;20.00;61.70;;;;;;5056209;28;20730;-63
2022/07/27 06:10:41;;;;;;;1.60;1.50;;;20.00;61.40;;;;;;5054184;28;20500;-64
2022/07/27 06:13:12;;;;;;;1.77;1.40;;;20.00;61.50;;;;;;5055842;28;20036;-63
2022/07/27 06:15:39;;;;;;;2.42;1.40;;;20.00;61.40;;;;;;5057112;28;20028;-62
2022/07/27 06:18:07;;;;;;;1.67;1.48;;;20.10;61.40;;;;;;5057072;28;20029;-63
2022/07/27 06:20:33;;;;;;;3.28;1.60;;;20.10;61.30;;;;;;5056165;28;20047;-66
2022/07/27 06:23:02;;;;;;;2.40;1.55;;;20.10;61.30;;;;;;5058066;28;20036;-63
2022/07/27 06:25:31;;;;;;;3.38;1.50;;;20.20;61.20;;;;;;5053754;28;20496;-64
2022/07/27 06:27:56;;;;;;;2.72;1.52;;;20.20;61.10;;;;;;5054969;28;20097;-61
2022/07/27 06:30:22;;;;;;;3.13;1.40;;;20.30;61.00;;;;;;5055611;28;20020;-62
2022/07/27 06:32:48;;;;;;;1.35;1.20;;;20.30;61.00;;;;;;5057399;28;20036;-62
2022/07/27 06:35:14;;;;;;;1.77;1.45;;;20.40;60.90;;;;;;5055950;28;20033;-63
2022/07/27 06:37:42;;;;;;;2.72;1.50;;;20.40;60.80;;;;;;5055565;28;20497;-62
2022/07/27 06:40:12;;;;;;;3.03;1.60;;;20.50;60.60;;;;;;5055567;28;20075;-65
2022/07/27 06:42:39;;;;;;;1.77;1.30;;;20.60;60.80;;;;;;5055398;28;20036;-63
2022/07/27 06:45:06;;;;;;;2.95;1.50;;;20.60;60.30;;;;;;5055707;28;20140;-62
2022/07/27 06:47:32;;;;;;;3.00;1.77;;;20.70;60.20;;;;;;5055735;28;20029;-63
2022/07/27 06:49:58;;;;;;;2.75;1.50;;;20.80;60.30;;;;;;5055382;28;20033;-62
2022/07/27 06:52:23;;;;;;;1.63;1.27;;;20.90;60.10;;;;;;5054333;28;20127;-62
2022/07/27 06:54:49;;;;;;;2.10;1.30;;;21.00;59.90;;;;;;5056278;28;20032;-63
2022/07/27 06:57:15;;;;;;;1.67;1.40;;;21.10;59.70;;;;;;5054426;28;20032;-62
2022/07/27 06:59:41;;;;;;;1.98;1.52;;;21.20;59.40;;;;;;5055415;28;20052;-63
2022/07/27 07:02:07;;;;;;;3.30;1.60;;;21.40;59.60;;;;;;5054942;28;20036;-63
2022/07/27 07:04:32;;;;;;;2.42;1.42;;;21.40;59.50;;;;;;5056410;28;20578;-63
2022/07/27 07:07:00;;;;;;;2.15;1.70;;;21.60;59.50;;;;;;5056557;28;20036;-63
2022/07/27 07:09:29;;;;;;;3.88;1.60;;;21.70;59.00;;;;;;5056524;28;20037;-64
2022/07/27 07:11:55;;;;;;;3.65;1.73;;;21.80;58.60;;;;;;5052038;28;20028;-65
2022/07/27 07:14:22;;;;;;;2.63;2.00;;;21.90;58.10;;;;;;5055671;28;20557;-63
2022/07/27 07:16:48;;;;;;;2.20;1.35;;;22.00;58.00;;;;;;5052651;28;20083;-62
2022/07/27 07:19:14;;;;;;;2.20;1.50;;;22.10;57.90;;;;;;5056978;28;20025;-63
2022/07/27 07:21:40;;;;;;;3.60;1.65;;;22.30;57.30;;;;;;5055026;28;20079;-63
2022/07/27 07:24:05;;;;;;;1.65;1.50;;;22.30;57.00;;;;;;5055969;28;20033;-62
2022/07/27 07:26:31;;;;;;;4.30;1.45;;;22.40;57.00;;;;;;5054907;28;20040;-63
2022/07/27 07:28:57;;;;;;;2.33;1.50;;;22.50;56.90;;;;;;5055136;28;20035;-61
2022/07/27 07:31:23;;;;;;;3.30;1.38;;;22.60;56.90;;;;;;5056940;28;20048;-63
2022/07/27 07:33:49;;;;;;;4.07;1.48;;;22.60;56.60;;;;;;5056713;28;20126;-64
2022/07/27 07:36:14;;;;;;;2.72;1.50;;;22.70;56.30;;;;;;5053591;28;20040;-64
2022/07/27 07:38:41;;;;;;;1.50;1.30;;;22.80;55.70;;;;;;5055345;28;20029;-65
2022/07/27 07:41:07;;;;;;;2.35;1.50;;;22.80;55.60;;;;;;5055290;28;20029;-64
2022/07/27 07:43:35;;;;;;;4.47;1.30;;;22.90;55.40;;;;;;5054773;28;20515;-62
2022/07/27 07:46:01;;;;;;;2.97;1.50;;;22.90;55.00;;;;;;5056170;28;20036;-63
2022/07/27 07:48:27;;;;;;;2.95;1.40;;;22.90;55.40;;;;;;5053051;28;20042;-63
2022/07/27 07:50:53;;;;;;;1.35;1.15;;;23.00;54.80;;;;;;5053008;28;20457;-64
2022/07/27 07:53:22;;;;;;;4.03;1.40;;;23.00;54.70;;;;;;5054608;28;20040;-62
2022/07/27 07:55:48;;;;;;;1.40;1.08;;;23.00;54.40;;;;;;5054689;28;20042;-61
2022/07/27 07:58:14;;;;;;;4.88;1.23;;;23.10;54.60;;;;;;5055432;28;20033;-63
2022/07/27 08:00:40;;;;;;;2.03;1.23;;;23.20;54.70;;;;;;5054878;28;20126;-63
2022/07/27 08:03:06;;;;;;;3.40;1.25;;;23.20;54.60;;;;;;5051148;28;20495;-63
2022/07/27 08:05:32;;;;;;;1.15;1.05;;;23.30;54.30;;;;;;5055264;28;20123;-63
2022/07/27 08:07:58;;;;;;;1.13;1.00;;;23.30;53.80;;;;;;5054413;28;20037;-64
2022/07/27 08:10:24;;;;;;;3.00;1.23;;;23.30;53.90;;;;;;5053588;28;20072;-62
2022/07/27 08:12:52;;;;;;;1.88;1.30;;;23.40;54.00;;;;;;5053311;28;20094;-62
2022/07/27 08:15:18;;;;;;;1.20;1.00;;;23.40;53.90;;;;;;5053341;28;20079;-63
2022/07/27 08:17:44;;;;;;;1.17;1.08;;;23.40;53.90;;;;;;5054680;28;20496;-62
2022/07/27 08:20:12;;;;;;;2.30;0.95;;;23.50;54.00;;;;;;5053347;28;20032;-63
2022/07/27 08:22:38;;;;;;;1.63;0.90;;;23.60;53.80;;;;;;5053591;28;20041;-62
2022/07/27 08:25:04;;;;;;;1.60;0.68;;;23.70;53.10;;;;;;5054875;28;20032;-63
2022/07/27 08:27:30;;;;;;;2.03;0.90;;;23.80;52.70;;;;;;5055133;28;20071;-62
2022/07/27 08:29:56;;;;;;;3.20;1.13;;;23.90;52.60;;;;;;5054001;28;20479;-62
2022/07/27 08:32:21;;;;;;;2.33;1.20;;;23.90;52.50;;;;;;5052507;28;20025;-64
2022/07/27 08:34:47;;;;;;;2.92;1.27;;;24.00;52.20;;;;;;5056442;28;20032;-63
2022/07/27 08:37:13;;;;;;;1.58;1.00;;;24.10;52.00;;;;;;5053487;28;20033;-62
2022/07/27 08:39:38;;;;;;;1.88;1.10;;;24.10;51.90;;;;;;5056461;28;20119;-65
2022/07/27 08:42:08;;;;;;;2.65;1.02;;;24.20;51.90;;;;;;5054752;28;20463;-63
2022/07/27 08:44:37;;;;;;;1.58;0.90;;;24.20;51.30;;;;;;5054734;28;20128;-62
2022/07/27 08:47:03;;;;;;;1.38;0.70;;;24.30;51.40;;;;;;5054133;28;20036;-63
2022/07/27 08:49:29;;;;;;;0.60;0.60;;;24.40;51.50;;;;;;5056512;28;20227;-62
2022/07/27 08:51:55;;;;;;;1.98;0.77;;;24.40;51.20;;;;;;5055098;28;20827;-61
2022/07/27 08:54:21;;;;;;;2.58;0.82;;;24.50;51.10;;;;;;5052512;28;20034;-65
2022/07/27 08:56:47;;;;;;;0.77;0.75;;;24.70;50.90;;;;;;5054308;28;20029;-63
2022/07/27 08:59:13;;;;;;;9.73;1.20;;;24.80;50.90;;;;;;5054526;28;20040;-66
2022/07/27 09:01:39;;;;;;;1.23;1.00;;;24.90;50.40;;;;;;5053582;28;20059;-63
2022/07/27 09:04:06;;;;;;;1.33;0.90;;;25.00;49.20;;;;;;5055313;28;20060;-62
2022/07/27 09:06:40;;;;;;;1.40;1.00;;;25.10;49.00;;;;;;5051958;28;20063;-64
2022/07/27 09:09:05;;;;;;;1.75;1.13;;;25.20;48.70;;;;;;5053750;28;20037;-62
2022/07/27 09:11:31;;;;;;;1.05;0.90;;;25.20;49.20;;;;;;5054367;28;20503;-62
2022/07/27 09:14:10;;;;;;;13.15;1.55;;;25.30;49.00;;;;;;5053524;28;20032;-63
2022/07/27 09:16:35;;;;;;;2.58;0.85;;;25.40;48.20;;;;;;5053700;28;20124;-64
2022/07/27 09:19:09;;;;;;;1.17;0.80;;;25.50;49.00;;;;;;5053737;28;20119;-63
2022/07/27 09:21:36;;;;;;;6.63;1.13;;;25.70;47.00;;;;;;5053421;28;20036;-63
2022/07/27 09:24:07;;;;;;;2.50;0.77;;;25.80;46.80;;;;;;5054199;28;20063;-64
2022/07/27 09:26:33;;;;;;;2.67;1.10;;;25.90;45.50;;;;;;5053963;28;20404;-61
2022/07/27 09:29:08;;;;;;;1.67;1.02;;;25.90;46.70;;;;;;5055141;28;20058;-63
2022/07/27 09:31:48;;;;;;;1.45;0.70;;;26.00;46.60;;;;;;5055472;28;20056;-66
2022/07/27 09:34:31;;;;;;;3.55;0.68;;;26.00;45.10;;;;;;5055546;28;20492;-64
2022/07/27 09:36:58;;;;;;;2.30;0.90;;;26.10;44.70;;;;;;5057424;28;20163;-63
2022/07/27 09:39:26;;;;;;;1.98;0.85;;;26.10;45.70;;;;;;5057883;28;20519;-63
2022/07/27 09:41:54;;;;;;;3.08;0.63;;;26.20;45.90;;;;;;5057855;28;20420;-62
2022/07/27 09:44:38;;;;;;;1.10;0.93;;;26.30;46.00;;;;;;5059556;28;20427;-64
2022/07/27 09:47:25;;;;;;;4.28;0.70;;;26.40;45.40;;;;;;5058613;28;20025;-65
2022/07/27 09:49:51;;;;;;;1.05;0.50;;;26.50;44.90;;;;;;5056627;28;20058;-63
2022/07/27 09:52:25;;;;;;;1.23;0.70;;;26.60;45.50;;;;;;5059092;28;20025;-64
2022/07/27 09:54:51;;;;;;;0.70;0.63;;;26.60;44.20;;;;;;5056815;28;20068;-64
2022/07/27 09:57:20;;;;;;;1.85;0.90;;;26.60;44.80;;;;;;5056944;28;20100;-62
2022/07/27 09:59:45;;;;;;;0.95;0.77;;;26.70;44.00;;;;;;5059189;28;20048;-63
2022/07/27 10:02:15;;;;;;;1.25;0.70;;;26.70;43.60;;;;;;5057786;28;20037;-64
2022/07/27 10:04:42;;;;;;;0.77;0.70;;;26.70;43.20;;;;;;5057106;28;20063;-62
2022/07/27 10:07:09;;;;;;;1.02;0.75;;;26.70;43.80;;;;;;5057674;28;20444;-63
2022/07/27 10:09:34;;;;;;;0.60;0.60;;;26.60;42.80;;;;;;5056172;28;20253;-63
2022/07/27 10:12:03;;;;;;;1.00;0.60;;;26.60;42.60;;;;;;5054991;28;20162;-63
2022/07/27 10:14:28;;;;;;;1.35;0.70;;;26.50;42.70;;;;;;5057395;28;20030;-63
2022/07/27 10:16:55;;;;;;;1.17;0.60;;;26.50;43.30;;;;;;5056300;28;20028;-63
2022/07/27 10:19:54;;;;;;;1.25;0.70;;;26.50;43.40;;;;;;5057461;28;20520;-63
2022/07/27 10:22:55;;;;;;;1.70;0.70;;;26.50;43.60;;;;;;5037499;28;20063;-63
2022/07/27 10:25:23;;;;;;;1.00;0.73;;;26.60;42.90;;;;;;5055453;28;20035;-64
2022/07/27 10:28:06;;;;;;;0.60;0.60;;;26.60;43.60;;;;;;5058241;28;20025;-61
2022/07/27 10:30:32;;;;;;;7.85;1.00;;;26.60;42.50;;;;;;5057865;28;20535;-62
2022/07/27 10:32:58;;;;;;;1.38;0.60;;;26.60;42.50;;;;;;5057019;28;20037;-63
2022/07/27 10:35:34;;;;;;;2.63;0.73;;;26.60;43.00;;;;;;5055451;28;20118;-62
2022/07/27 10:38:06;;;;;;;4.05;0.70;;;26.60;41.40;;;;;;5057395;28;20036;-61
2022/07/27 10:40:35;;;;;;;4.80;0.70;;;26.60;42.20;;;;;;5056319;28;20128;-62
2022/07/27 10:43:20;;;;;;;2.78;0.80;;;26.60;43.20;;;;;;5056334;28;20543;-61
2022/07/27 10:45:48;;;;;;;3.83;0.60;;;26.60;43.30;;;;;;5056387;28;20979;-62
2022/07/27 10:48:36;;;;;;;1.58;0.93;;;26.70;43.50;;;;;;5056074;28;20101;-61
2022/07/27 10:51:02;;;;;;;2.55;0.70;;;26.80;42.50;;;;;;5058028;28;20360;-63
2022/07/27 10:53:36;;;;;;;2.85;0.90;;;26.90;42.50;;;;;;5055657;28;20040;-63
2022/07/27 10:56:04;;;;;;;3.27;0.83;;;27.00;42.40;;;;;;5055262;28;20037;-62
2022/07/27 10:58:29;;;;;;;4.65;0.80;;;27.10;42.40;;;;;;5057978;28;20036;-62
2022/07/27 11:00:55;;;;;;;2.30;0.90;;;27.10;42.60;;;;;;5056643;28;20466;-62
2022/07/27 11:03:25;;;;;;;1.77;0.80;;;27.20;42.30;;;;;;5054844;28;20041;-63
2022/07/27 11:06:01;;;;;;;1.35;0.60;;;27.10;42.40;;;;;;5056474;28;20328;-63
2022/07/27 11:08:29;;;;;;;0.77;0.63;;;27.20;42.00;;;;;;5055795;28;20090;-64
2022/07/27 11:10:55;;;;;;;1.40;0.80;;;27.20;42.50;;;;;;5052897;28;20504;-61
2022/07/27 11:13:24;;;;;;;1.98;0.95;;;27.20;42.10;;;;;;5055905;28;20391;-64
2022/07/27 11:15:54;;;;;;;1.50;0.70;;;27.30;41.90;;;;;;5055784;28;20044;-63
2022/07/27 11:18:29;;;;;;;2.20;0.82;;;27.30;41.70;;;;;;5057635;28;20482;-64
2022/07/27 11:21:13;;;;;;;2.45;0.93;;;27.20;41.80;;;;;;5056366;28;20033;-63
2022/07/27 11:23:40;;;;;;;1.43;0.83;;;27.20;41.50;;;;;;5057203;28;20638;-63
2022/07/27 11:26:05;;;;;;;3.85;0.90;;;27.10;42.10;;;;;;5057211;28;20112;-64
2022/07/27 11:28:33;;;;;;;1.40;0.82;;;27.10;42.70;;;;;;5055578;28;20166;-65
2022/07/27 11:31:00;;;;;;;1.00;0.88;;;27.10;42.60;;;;;;5055514;28;20089;-65
2022/07/27 11:33:26;;;;;;;3.28;0.90;;;27.10;41.90;;;;;;5055745;28;20057;-62
2022/07/27 11:36:01;;;;;;;3.20;0.85;;;27.10;42.50;;;;;;5057098;28;20037;-63
2022/07/27 11:38:28;;;;;;;3.95;1.00;;;27.10;42.70;;;;;;5055736;28;20048;-65
2022/07/27 11:40:54;;;;;;;1.23;0.90;;;27.10;41.50;;;;;;5057648;28;20041;-63
2022/07/27 11:43:37;;;;;;;2.65;1.20;;;27.10;42.40;;;;;;5056677;28;20036;-64
2022/07/27 11:46:13;;;;;;;0.95;0.90;;;27.10;41.40;;;;;;5055000;28;20025;-62
2022/07/27 11:48:47;;;;;;;2.22;1.05;;;27.10;41.90;;;;;;5055907;28;20040;-64
2022/07/27 11:51:15;;;;;;;0.80;0.80;;;27.20;41.70;;;;;;5055027;28;20443;-63
2022/07/27 11:53:41;;;;;;;1.33;1.00;;;27.20;42.50;;;;;;5055985;28;20040;-63
2022/07/27 11:56:07;;;;;;;1.00;0.80;;;27.30;41.90;;;;;;5055442;28;20032;-62
2022/07/27 11:58:51;;;;;;;1.88;0.90;;;27.30;41.70;;;;;;5056054;28;20496;-63
2022/07/27 12:01:32;;;;;;;2.45;1.05;;;27.30;41.10;;;;;;5056040;28;20048;-63
2022/07/27 12:04:09;;;;;;;1.40;1.10;;;27.30;41.80;;;;;;5058187;28;20064;-62
2022/07/27 12:06:35;;;;;;;1.25;0.98;;;27.20;40.50;;;;;;5053345;28;20032;-62
2022/07/27 12:09:04;;;;;;;1.52;0.98;;;27.20;41.50;;;;;;5055168;28;20025;-63
2022/07/27 12:11:44;;;;;;;1.33;1.10;;;27.10;41.70;;;;;;5054318;28;20060;-64
2022/07/27 12:14:14;;;;;;;1.98;1.35;;;27.00;41.20;;;;;;5055498;28;20128;-67
2022/07/27 12:16:39;;;;;;;1.83;1.10;;;26.90;41.80;;;;;;5054118;28;20127;-61
2022/07/27 12:19:05;;;;;;;1.38;1.02;;;26.80;42.50;;;;;;5057359;28;20111;-63
2022/07/27 12:21:31;;;;;;;1.00;1.00;;;26.80;42.60;;;;;;5055666;28;20396;-63
2022/07/27 12:23:57;;;;;;;1.45;1.00;;;26.70;42.20;;;;;;5056226;28;20036;-63
2022/07/27 12:26:26;;;;;;;1.83;1.20;;;26.70;42.20;;;;;;5054396;28;20036;-64
2022/07/27 12:29:09;;;;;;;2.70;1.10;;;26.60;42.20;;;;;;5055356;28;20040;-63
2022/07/27 12:31:36;;;;;;;3.10;1.10;;;26.60;41.70;;;;;;5052951;28;20076;-65
2022/07/27 12:34:04;;;;;;;1.45;1.10;;;26.60;41.90;;;;;;5056931;28;20029;-63
2022/07/27 12:36:30;;;;;;;4.78;0.95;;;26.60;42.40;;;;;;5053412;28;20033;-63
2022/07/27 12:38:59;;;;;;;1.50;1.05;;;26.60;42.20;;;;;;5055962;28;20029;-63
2022/07/27 12:41:29;;;;;;;0.70;0.70;;;26.60;42.60;;;;;;5054119;28;20032;-63
2022/07/27 12:44:15;;;;;;;1.52;1.10;;;26.60;43.10;;;;;;5055714;28;20415;-62
2022/07/27 12:47:00;;;;;;;1.08;0.98;;;26.70;43.10;;;;;;5052665;28;20033;-63
2022/07/27 12:49:33;;;;;;;1.30;1.20;;;26.80;42.80;;;;;;5053616;28;22529;-63
2022/07/27 12:52:06;;;;;;;1.30;1.08;;;26.90;42.90;;;;;;5054495;28;20500;-62